Time;durP1;ratioP1;P1;durP2;ratioP2;P2;SDS_P1;SDS_P2;PMS_P1;PMS_P2;Temp;Humidity;BMP_temperature;BMP_pressure;BME280_temperature;BME280_humidity;BME280_pressure;Samples;Min_cycle;Max_cycle;Signal;HPM_P1;HPM_P2
2023/10/02 00:02:40;;;;;;;;;;;16.90;81.30;;;;;;4963721;28;20361;-77
2023/10/02 00:05:06;;;;;;;;;;;16.90;81.30;;;;;;4961404;28;19981;-77
2023/10/02 00:07:35;;;;;;;;;;;16.80;81.40;;;;;;4955206;28;20034;-77
2023/10/02 00:10:02;;;;;;;;;;;16.80;81.50;;;;;;4964639;28;19981;-77
2023/10/02 00:12:28;;;;;;;;;;;16.80;81.50;;;;;;4963854;28;20084;-77
2023/10/02 00:14:55;;;;;;;;;;;16.80;81.70;;;;;;4956610;28;20088;-77
2023/10/02 00:17:24;;;;;;;;;;;16.70;81.60;;;;;;4974816;28;20000;-76
2023/10/02 00:19:57;;;;;;;;;;;16.70;81.70;;;;;;4959665;28;19987;-77
2023/10/02 00:22:38;;;;;;;;;;;16.70;81.80;;;;;;4960896;28;20554;-77
2023/10/02 00:25:07;;;;;;;;;;;16.60;81.90;;;;;;4958547;28;19985;-78
2023/10/02 00:27:34;;;;;;;;;;;16.60;81.90;;;;;;4955007;28;20009;-77
2023/10/02 00:30:02;;;;;;;;;;;16.60;82.00;;;;;;4970594;28;19985;-76
2023/10/02 00:32:29;;;;;;;;;;;16.60;82.10;;;;;;4962085;28;19997;-77
2023/10/02 00:34:58;;;;;;;;;;;16.60;82.20;;;;;;4959943;28;19985;-77
2023/10/02 00:37:43;;;;;;;;;;;16.60;82.20;;;;;;4955755;28;19997;-77
2023/10/02 00:40:13;;;;;;;;;;;16.50;82.30;;;;;;4965294;28;19991;-76
2023/10/02 00:42:38;;;;;;;;;;;16.50;82.40;;;;;;4963785;28;19993;-77
2023/10/02 00:45:08;;;;;;;;;;;16.50;82.40;;;;;;4968265;28;19980;-77
2023/10/02 00:47:48;;;;;;;;;;;16.40;83.10;;;;;;4961456;28;20052;-76
2023/10/02 00:50:24;;;;;;;;;;;16.50;82.40;;;;;;4956227;28;19978;-76
2023/10/02 00:52:51;;;;;;;;;;;16.40;82.40;;;;;;4964633;28;20233;-76
2023/10/02 00:55:21;;;;;;;;;;;16.40;82.30;;;;;;4962727;28;19976;-77
2023/10/02 00:57:50;;;;;;;;;;;16.40;82.30;;;;;;4961615;28;20043;-76
2023/10/02 01:00:21;;;;;;;;;;;16.40;82.40;;;;;;4962545;28;19985;-76
2023/10/02 01:02:49;;;;;;;;;;;16.40;82.50;;;;;;4961099;28;20001;-76
2023/10/02 01:05:21;;;;;;;;;;;16.30;82.50;;;;;;4956840;28;21587;-76
2023/10/02 01:07:53;;;;;;;;;;;16.30;82.50;;;;;;4968814;28;19993;-77
2023/10/02 01:10:23;;;;;;;;;;;16.30;82.50;;;;;;4974073;28;20583;-77
2023/10/02 01:12:59;;;;;;;;;;;16.30;82.60;;;;;;4964195;28;20020;-76
2023/10/02 01:15:27;;;;;;;;;;;16.30;82.70;;;;;;4959067;28;20139;-78
2023/10/02 01:17:54;;;;;;;;;;;16.20;82.60;;;;;;4968673;28;20082;-76
2023/10/02 01:20:32;;;;;;;;;;;16.20;82.70;;;;;;4959022;28;19981;-76
2023/10/02 01:23:11;;;;;;;;;;;16.20;82.70;;;;;;4955883;28;20000;-77
2023/10/02 01:25:44;;;;;;;;;;;16.10;82.70;;;;;;4965630;28;19985;-76
2023/10/02 01:28:13;;;;;;;;;;;16.10;82.80;;;;;;4962478;28;19997;-76
2023/10/02 01:30:40;;;;;;;;;;;16.10;82.70;;;;;;4962853;28;19997;-76
2023/10/02 01:33:12;;;;;;;;;;;16.10;82.80;;;;;;4961433;28;20031;-76
2023/10/02 01:35:39;;;;;;;;;;;16.10;82.90;;;;;;4961815;28;20077;-77
2023/10/02 01:38:12;;;;;;;;;;;16.10;82.90;;;;;;4952548;28;20004;-76
2023/10/02 01:40:42;;;;;;;;;;;16.10;82.90;;;;;;4977463;28;19984;-77
2023/10/02 01:43:15;;;;;;;;;;;16.00;82.90;;;;;;4962341;28;20079;-77
2023/10/02 01:45:43;;;;;;;;;;;16.00;82.90;;;;;;4965201;28;19997;-76
2023/10/02 01:48:12;;;;;;;;;;;16.00;82.90;;;;;;4967080;28;20004;-77
2023/10/02 01:50:39;;;;;;;;;;;16.00;83.00;;;;;;4957717;28;20068;-76
2023/10/02 01:53:06;;;;;;;;;;;16.00;83.10;;;;;;4961155;28;19991;-76
2023/10/02 01:55:36;;;;;;;;;;;16.00;83.20;;;;;;4960862;28;20028;-76
2023/10/02 01:58:17;;;;;;;;;;;15.90;83.20;;;;;;4962478;28;20882;-79
2023/10/02 02:00:46;;;;;;;;;;;15.90;83.20;;;;;;4962219;28;20786;-76
2023/10/02 02:03:15;;;;;;;;;;;15.90;83.20;;;;;;4961511;28;20061;-78
2023/10/02 02:05:46;;;;;;;;;;;15.90;83.30;;;;;;4960932;28;20516;-76
2023/10/02 02:08:22;;;;;;;;;;;15.80;83.30;;;;;;4958228;28;19997;-79
2023/10/02 02:10:50;;;;;;;;;;;15.90;83.40;;;;;;4969608;28;19991;-76
2023/10/02 02:13:19;;;;;;;;;;;15.80;83.50;;;;;;4963395;28;19985;-76
2023/10/02 02:15:45;;;;;;;;;;;15.80;83.50;;;;;;4969559;28;20023;-76
2023/10/02 02:18:14;;;;;;;;;;;15.80;83.60;;;;;;4964986;28;20005;-76
2023/10/02 02:20:57;;;;;;;;;;;15.80;83.70;;;;;;4964697;28;19981;-77
2023/10/02 02:23:26;;;;;;;;;;;15.70;83.60;;;;;;4957015;28;20193;-75
2023/10/02 02:28:57;;;;;;;;;;;15.70;83.60;;;;;;4963198;28;20019;-76
2023/10/02 02:31:30;;;;;;;;;;;15.70;83.60;;;;;;4960619;28;20012;-76
2023/10/02 02:33:58;;;;;;;;;;;15.70;83.70;;;;;;4958322;28;20004;-79
2023/10/02 02:36:25;;;;;;;;;;;15.60;84.40;;;;;;4961632;28;19985;-77
2023/10/02 02:39:05;;;;;;;;;;;15.60;83.80;;;;;;4960772;28;20048;-76
2023/10/02 02:41:32;;;;;;;;;;;15.60;83.80;;;;;;4963702;28;19981;-76
2023/10/02 02:44:00;;;;;;;;;;;15.60;83.70;;;;;;4963952;28;19999;-78
2023/10/02 02:46:29;;;;;;;;;;;15.60;83.80;;;;;;4960353;28;20001;-76
2023/10/02 02:48:57;;;;;;;;;;;15.60;83.90;;;;;;4959812;28;20395;-77
2023/10/02 02:51:24;;;;;;;;;;;15.60;83.80;;;;;;4966770;28;19976;-76
2023/10/02 02:53:52;;;;;;;;;;;15.50;83.80;;;;;;4962281;28;20035;-78
2023/10/02 02:56:22;;;;;;;;;;;15.50;83.80;;;;;;4963028;28;20108;-78
2023/10/02 02:58:50;;;;;;;;;;;15.50;83.80;;;;;;4962584;28;19997;-77
2023/10/02 03:01:23;;;;;;;;;;;15.50;83.80;;;;;;4956416;28;19999;-78
2023/10/02 03:03:49;;;;;;;;;;;15.50;83.80;;;;;;4960569;28;20032;-78
2023/10/02 03:06:18;;;;;;;;;;;15.50;83.90;;;;;;4965646;28;19992;-78
2023/10/02 03:08:45;;;;;;;;;;;15.50;83.90;;;;;;4962214;28;20095;-78
2023/10/02 03:11:12;;;;;;;;;;;15.40;83.80;;;;;;4961965;28;19977;-78
2023/10/02 03:13:40;;;;;;;;;;;15.40;83.90;;;;;;4973396;28;19981;-78
2023/10/02 03:16:16;;;;;;;;;;;15.40;83.80;;;;;;4958837;28;20095;-78
2023/10/02 03:18:44;;;;;;;;;;;15.40;83.90;;;;;;4966109;28;20542;-78
2023/10/02 03:21:21;;;;;;;;;;;15.40;83.90;;;;;;4970261;28;20399;-78
2023/10/02 03:23:48;;;;;;;;;;;15.30;83.80;;;;;;4960878;28;20536;-78
2023/10/02 03:26:26;;;;;;;;;;;15.30;83.80;;;;;;4970126;28;20016;-78
2023/10/02 03:29:00;;;;;;;;;;;15.30;83.80;;;;;;4961013;28;20005;-78
2023/10/02 03:31:34;;;;;;;;;;;15.30;83.80;;;;;;4951985;28;20000;-78
2023/10/02 03:34:24;;;;;;;;;;;15.30;83.90;;;;;;4953366;28;19981;-78
2023/10/02 03:36:50;;;;;;;;;;;15.30;84.00;;;;;;4952562;28;20868;-78
2023/10/02 03:39:51;;;;;;;;;;;15.20;84.00;;;;;;4953458;28;20366;-78
2023/10/02 03:42:12;;;;;;;;;;;15.20;84.00;;;;;;4951520;28;19977;-78
2023/10/02 03:44:40;;;;;;;;;;;15.20;84.10;;;;;;4949602;28;19981;-78
2023/10/02 03:47:07;;;;;;;;;;;15.20;84.20;;;;;;4951107;28;20938;-78
2023/10/02 03:49:35;;;;;;;;;;;15.20;84.20;;;;;;4951442;28;19987;-78
2023/10/02 03:52:01;;;;;;;;;;;15.10;84.20;;;;;;4951321;28;20099;-78
2023/10/02 03:54:29;;;;;;;;;;;15.20;84.30;;;;;;4941992;28;20060;-78
2023/10/02 03:56:56;;;;;;;;;;;15.10;84.30;;;;;;4950362;28;21988;-78
2023/10/02 03:59:26;;;;;;;;;;;15.10;84.30;;;;;;4948547;28;20035;-78
2023/10/02 04:01:53;;;;;;;;;;;15.10;84.40;;;;;;4951308;28;20483;-78
2023/10/02 04:04:21;;;;;;;;;;;15.10;84.50;;;;;;4951994;28;20000;-78
2023/10/02 04:06:53;;;;;;;;;;;15.10;84.60;;;;;;4951337;28;20153;-78
2023/10/02 04:09:23;;;;;;;;;;;15.10;84.60;;;;;;4951755;28;20875;-78
2023/10/02 04:11:50;;;;;;;;;;;15.00;84.50;;;;;;4951266;28;20012;-78
2023/10/02 04:14:31;;;;;;;;;;;15.00;84.50;;;;;;4950931;28;19984;-78
2023/10/02 04:17:08;;;;;;;;;;;15.00;84.50;;;;;;4951829;28;20074;-78
2023/10/02 04:19:35;;;;;;;;;;;15.00;84.60;;;;;;4952469;28;20961;-76
2023/10/02 04:22:06;;;;;;;;;;;15.00;84.60;;;;;;4951605;28;19974;-78
2023/10/02 04:24:50;;;;;;;;;;;15.00;84.70;;;;;;4951859;28;20001;-78
2023/10/02 04:27:18;;;;;;;;;;;14.90;84.70;;;;;;4951223;28;20585;-77
2023/10/02 04:30:09;;;;;;;;;;;14.90;84.70;;;;;;4957077;28;19988;-76
2023/10/02 04:32:32;;;;;;;;;;;14.90;84.80;;;;;;4962661;28;20000;-78
2023/10/02 04:35:02;;;;;;;;;;;14.90;84.70;;;;;;4966941;28;19977;-77
2023/10/02 04:37:32;;;;;;;;;;;14.90;84.70;;;;;;4961582;28;20079;-78
2023/10/02 04:40:15;;;;;;;;;;;14.80;84.60;;;;;;4961212;28;20347;-78
2023/10/02 04:43:09;;;;;;;;;;;14.80;84.70;;;;;;4961190;28;20398;-78
2023/10/02 04:45:37;;;;;;;;;;;14.80;84.80;;;;;;4961029;28;20002;-77
2023/10/02 04:48:09;;;;;;;;;;;14.80;84.80;;;;;;4961363;28;20001;-76
2023/10/02 04:50:36;;;;;;;;;;;14.80;84.90;;;;;;4960405;28;19984;-77
2023/10/02 04:53:19;;;;;;;;;;;14.70;84.90;;;;;;4962694;28;19993;-78
2023/10/02 04:55:48;;;;;;;;;;;14.80;85.00;;;;;;4954234;28;19989;-77
2023/10/02 04:58:19;;;;;;;;;;;14.80;85.00;;;;;;4961212;28;20000;-76
2023/10/02 05:03:26;;;;;;;;;;;14.70;85.10;;;;;;4959352;28;20004;-77
2023/10/02 05:05:53;;;;;;;;;;;14.70;85.20;;;;;;4967678;28;19993;-78
2023/10/02 05:08:29;;;;;;;;;;;14.70;85.30;;;;;;4970129;28;20493;-77
2023/10/02 05:10:56;;;;;;;;;;;14.70;85.30;;;;;;4954166;28;20503;-78
2023/10/02 05:16:11;;;;;;;;;;;14.60;85.30;;;;;;4967645;28;20004;-78
2023/10/02 05:18:37;;;;;;;;;;;14.60;85.30;;;;;;4958499;28;19993;-77
2023/10/02 05:21:04;;;;;;;;;;;14.60;85.40;;;;;;4955028;28;19985;-77
2023/10/02 05:23:31;;;;;;;;;;;14.60;85.40;;;;;;4955244;28;19997;-78
2023/10/02 05:26:00;;;;;;;;;;;14.50;85.40;;;;;;4956756;28;19991;-78
2023/10/02 05:28:42;;;;;;;;;;;14.50;85.40;;;;;;4954952;28;20025;-78
2023/10/02 05:31:12;;;;;;;;;;;14.50;85.40;;;;;;4960482;28;20010;-78
2023/10/02 05:33:39;;;;;;;;;;;14.50;85.50;;;;;;4959102;28;20035;-77
2023/10/02 05:36:06;;;;;;;;;;;14.50;85.50;;;;;;4960063;28;20461;-78
2023/10/02 05:38:34;;;;;;;;;;;14.50;85.50;;;;;;4956082;28;20001;-78
2023/10/02 05:41:00;;;;;;;;;;;14.50;85.60;;;;;;4953822;28;19989;-78
2023/10/02 05:43:31;;;;;;;;;;;14.40;85.50;;;;;;4957908;28;20001;-77
2023/10/02 05:45:58;;;;;;;;;;;14.50;85.60;;;;;;4955992;28;20020;-78
2023/10/02 05:48:28;;;;;;;;;;;14.40;85.60;;;;;;4958083;28;20082;-78
2023/10/02 05:50:56;;;;;;;;;;;14.40;85.50;;;;;;4957104;28;20373;-77
2023/10/02 05:53:25;;;;;;;;;;;14.40;85.60;;;;;;4956853;28;19985;-76
2023/10/02 05:56:06;;;;;;;;;;;14.40;85.60;;;;;;4957259;28;20064;-76
2023/10/02 05:58:32;;;;;;;;;;;14.40;85.60;;;;;;4957815;28;20042;-77
2023/10/02 06:01:02;;;;;;;;;;;14.40;85.80;;;;;;4954306;28;20024;-76
2023/10/02 06:03:34;;;;;;;;;;;14.30;85.70;;;;;;4962552;28;20038;-77
2023/10/02 06:06:15;;;;;;;;;;;14.40;85.80;;;;;;4965023;28;19981;-77
2023/10/02 06:08:41;;;;;;;;;;;14.30;85.70;;;;;;4958495;28;19999;-77
2023/10/02 06:11:25;;;;;;;;;;;14.30;85.80;;;;;;4963929;28;19981;-77
2023/10/02 06:13:54;;;;;;;;;;;14.30;85.80;;;;;;4964363;28;19993;-77
2023/10/02 06:16:24;;;;;;;;;;;14.30;85.90;;;;;;4956571;28;20058;-77
2023/10/02 06:19:00;;;;;;;;;;;14.30;86.00;;;;;;4970510;28;20086;-77
2023/10/02 06:21:28;;;;;;;;;;;14.30;86.00;;;;;;4958331;28;19984;-77
2023/10/02 06:23:56;;;;;;;;;;;14.30;86.10;;;;;;4957569;28;20001;-77
2023/10/02 06:26:29;;;;;;;;;;;14.30;86.00;;;;;;4957989;28;19984;-76
2023/10/02 06:31:41;;;;;;;;;;;14.20;86.20;;;;;;4951809;28;19989;-77
2023/10/02 06:34:09;;;;;;;;;;;14.20;86.20;;;;;;4963504;28;19987;-77
2023/10/02 06:36:45;;;;;;;;;;;14.20;86.30;;;;;;4959730;28;19985;-77
2023/10/02 06:39:13;;;;;;;;;;;14.20;86.40;;;;;;4954103;28;20569;-77
2023/10/02 06:41:41;;;;;;;;;;;14.20;86.40;;;;;;4957674;28;20012;-76
2023/10/02 06:44:15;;;;;;;;;;;14.20;86.50;;;;;;4956423;28;19993;-77
2023/10/02 06:46:52;;;;;;;;;;;14.20;86.60;;;;;;4956659;28;20522;-77
2023/10/02 06:49:20;;;;;;;;;;;14.20;86.60;;;;;;4957562;28;19988;-77
2023/10/02 06:51:49;;;;;;;;;;;14.20;86.70;;;;;;4960199;28;19985;-76
2023/10/02 06:54:18;;;;;;;;;;;14.20;86.70;;;;;;4961018;28;20084;-77
2023/10/02 06:56:46;;;;;;;;;;;14.20;86.80;;;;;;4962220;28;20012;-76
2023/10/02 06:59:12;;;;;;;;;;;14.20;86.90;;;;;;4966094;28;20364;-76
2023/10/02 07:02:01;;;;;;;;;;;14.20;87.00;;;;;;4961627;28;20001;-76
2023/10/02 07:04:29;;;;;;;;;;;14.20;87.00;;;;;;4960542;28;20001;-77
2023/10/02 07:07:02;;;;;;;;;;;14.20;87.00;;;;;;4963525;28;19985;-76
2023/10/02 07:09:33;;;;;;;;;;;14.20;87.00;;;;;;4962681;28;19978;-77
2023/10/02 07:12:08;;;;;;;;;;;14.20;87.00;;;;;;4964223;28;20017;-77
2023/10/02 07:14:36;;;;;;;;;;;14.20;87.00;;;;;;4962458;28;20032;-76
2023/10/02 07:17:11;;;;;;;;;;;14.20;87.00;;;;;;4960215;28;20099;-77
2023/10/02 07:19:39;;;;;;;;;;;14.20;87.00;;;;;;4963378;28;19981;-76
2023/10/02 07:22:16;;;;;;;;;;;14.20;87.00;;;;;;4960421;28;19984;-77
2023/10/02 07:24:45;;;;;;;;;;;14.20;87.00;;;;;;4961469;28;20511;-77
2023/10/02 07:27:23;;;;;;;;;;;14.20;87.10;;;;;;4973471;28;20001;-76
2023/10/02 07:29:51;;;;;;;;;;;14.20;87.10;;;;;;4965830;28;20038;-77
2023/10/02 07:32:18;;;;;;;;;;;14.10;87.10;;;;;;4960108;28;19997;-77
2023/10/02 07:34:46;;;;;;;;;;;14.20;87.10;;;;;;4960956;28;20539;-77
2023/10/02 07:37:16;;;;;;;;;;;14.20;87.20;;;;;;4956642;28;20032;-77
2023/10/02 07:39:42;;;;;;;;;;;14.20;87.20;;;;;;4962368;28;19978;-77
2023/10/02 07:42:10;;;;;;;;;;;14.20;87.20;;;;;;4960428;28;19993;-77
2023/10/02 07:44:41;;;;;;;;;;;14.20;87.30;;;;;;4963657;28;20001;-77
2023/10/02 07:47:10;;;;;;;;;;;14.20;87.30;;;;;;4967894;28;20005;-77
2023/10/02 07:49:40;;;;;;;;;;;14.20;87.40;;;;;;4958173;28;19978;-77
2023/10/02 07:52:08;;;;;;;;;;;14.20;87.40;;;;;;4959442;28;19985;-77
2023/10/02 07:54:45;;;;;;;;;;;14.20;87.40;;;;;;4960287;28;20367;-77
2023/10/02 07:57:13;;;;;;;;;;;14.20;87.40;;;;;;4958518;28;20082;-77
2023/10/02 07:59:43;;;;;;;;;;;14.20;87.40;;;;;;4964636;28;20007;-77
2023/10/02 08:02:22;;;;;;;;;;;14.20;87.40;;;;;;4964963;28;20054;-77
2023/10/02 08:04:51;;;;;;;;;;;14.20;87.40;;;;;;4961293;28;19997;-77
2023/10/02 08:07:18;;;;;;;;;;;14.20;87.50;;;;;;4961508;28;19994;-77
2023/10/02 08:09:47;;;;;;;;;;;14.20;87.40;;;;;;4966477;28;20455;-77
2023/10/02 08:12:29;;;;;;;;;;;14.30;87.30;;;;;;4960660;28;19989;-77
2023/10/02 08:14:59;;;;;;;;;;;14.30;87.20;;;;;;4964198;28;19993;-77
2023/10/02 08:17:59;;;;;;;;;;;14.30;87.10;;;;;;4958166;28;20009;-77
2023/10/02 08:20:24;;;;;;;;;;;14.30;87.00;;;;;;4959592;28;20068;-77
2023/10/02 08:22:52;;;;;;;;;;;14.30;86.90;;;;;;4958365;28;19988;-77
2023/10/02 08:25:23;;;;;;;;;;;14.40;86.80;;;;;;4961278;28;19997;-77
2023/10/02 08:27:55;;;;;;;;;;;14.40;86.70;;;;;;4961938;28;19997;-78
2023/10/02 08:30:31;;;;;;;;;;;14.40;86.80;;;;;;4959604;28;19988;-77
2023/10/02 08:33:05;;;;;;;;;;;14.50;86.90;;;;;;4966217;28;20689;-77
2023/10/02 08:35:33;;;;;;;;;;;14.50;86.80;;;;;;4955589;28;19980;-77
2023/10/02 08:37:59;;;;;;;;;;;14.50;86.80;;;;;;4957182;28;19997;-77
2023/10/02 08:40:26;;;;;;;;;;;14.60;86.90;;;;;;4959143;28;19981;-77
2023/10/02 08:42:54;;;;;;;;;;;14.60;87.00;;;;;;4959269;28;20438;-77
2023/10/02 08:45:21;;;;;;;;;;;14.60;86.80;;;;;;4956618;28;19998;-77
2023/10/02 08:47:49;;;;;;;;;;;14.60;86.90;;;;;;4958518;28;20095;-77
2023/10/02 08:50:16;;;;;;;;;;;14.70;86.80;;;;;;4956787;28;19989;-78
2023/10/02 08:52:50;;;;;;;;;;;14.70;86.90;;;;;;4959201;28;20475;-77
2023/10/02 08:55:40;;;;;;;;;;;14.70;86.80;;;;;;4960911;28;20313;-78
2023/10/02 08:58:16;;;;;;;;;;;14.70;86.90;;;;;;4957365;28;20501;-78
2023/10/02 09:01:17;;;;;;;;;;;14.80;87.20;;;;;;4956133;28;20382;-77
2023/10/02 09:04:03;;;;;;;;;;;14.80;87.20;;;;;;4957483;28;20086;-77
2023/10/02 09:06:36;;;;;;;;;;;14.90;87.20;;;;;;4959792;28;20119;-77
2023/10/02 09:09:23;;;;;;;;;;;14.90;87.40;;;;;;4956450;28;20080;-77
2023/10/02 09:11:52;;;;;;;;;;;15.00;87.40;;;;;;4956735;28;20345;-77
2023/10/02 09:14:23;;;;;;;;;;;15.00;87.20;;;;;;4959439;28;19977;-77
2023/10/02 09:17:07;;;;;;;;;;;15.10;87.20;;;;;;4961191;28;19995;-77
2023/10/02 09:19:37;;;;;;;;;;;15.20;87.30;;;;;;4956615;28;20039;-77
2023/10/02 09:22:11;;;;;;;;;;;15.30;87.50;;;;;;4955293;28;19992;-77
2023/10/02 09:24:38;;;;;;;;;;;15.30;87.00;;;;;;4958408;28;19997;-77
2023/10/02 09:27:23;;;;;;;;;;;15.40;87.10;;;;;;4954684;28;20364;-77
2023/10/02 09:30:15;;;;;;;;;;;15.50;86.60;;;;;;4953384;28;19981;-77
2023/10/02 09:32:47;;;;;;;;;;;15.60;86.10;;;;;;4954763;28;20028;-77
2023/10/02 09:35:22;;;;;;;;;;;15.60;85.70;;;;;;4954507;28;19981;-77
2023/10/02 09:37:55;;;;;;;;;;;15.80;85.50;;;;;;4958135;28;20008;-77
2023/10/02 09:40:26;;;;;;;;;;;15.80;85.90;;;;;;4960174;28;20130;-77
2023/10/02 09:43:00;;;;;;;;;;;15.90;85.10;;;;;;4963132;28;19988;-77
2023/10/02 09:45:34;;;;;;;;;;;16.00;84.90;;;;;;4959092;28;19999;-77
2023/10/02 09:48:05;;;;;;;;;;;16.10;84.70;;;;;;4956735;28;20005;-77
2023/10/02 09:50:37;;;;;;;;;;;16.10;84.50;;;;;;4970146;28;19983;-77
2023/10/02 09:53:08;;;;;;;;;;;16.20;84.40;;;;;;4960097;28;19984;-77
2023/10/02 09:55:42;;;;;;;;;;;16.30;84.20;;;;;;4955464;28;20047;-77
2023/10/02 09:58:26;;;;;;;;;;;16.40;84.10;;;;;;4961631;28;20567;-77
2023/10/02 10:01:29;;;;;;;;;;;16.50;83.90;;;;;;4953598;28;20729;-77
2023/10/02 10:03:55;;;;;;;;;;;16.60;83.70;;;;;;4962362;28;20819;-77
2023/10/02 10:06:28;;;;;;;;;;;16.70;83.50;;;;;;4958903;28;19988;-77
2023/10/02 10:14:54;;;;;;;;;;;16.90;83.00;;;;;;4961229;28;19980;-77
2023/10/02 10:17:49;;;;;;;;;;;17.00;82.80;;;;;;4951737;28;20048;-77
2023/10/02 10:20:22;;;;;;;;;;;17.10;82.70;;;;;;4949228;28;19981;-77
2023/10/02 10:22:51;;;;;;;;;;;17.10;82.50;;;;;;4957647;28;20360;-77
2023/10/02 10:25:33;;;;;;;;;;;17.30;82.40;;;;;;4952903;28;20702;-77
2023/10/02 10:28:00;;;;;;;;;;;17.30;82.20;;;;;;4959548;28;20496;-77
2023/10/02 10:30:42;;;;;;;;;;;17.40;82.10;;;;;;4957668;28;20367;-77
2023/10/02 10:33:27;;;;;;;;;;;17.50;82.00;;;;;;4965574;28;19985;-77
2023/10/02 10:35:55;;;;;;;;;;;17.60;81.70;;;;;;4960957;28;19981;-77
2023/10/02 10:38:36;;;;;;;;;;;17.60;81.40;;;;;;4963927;28;20296;-77
2023/10/02 10:41:05;;;;;;;;;;;17.70;81.20;;;;;;4956813;28;19995;-77
2023/10/02 10:43:46;;;;;;;;;;;17.80;81.00;;;;;;4957386;28;19955;-77
2023/10/02 10:46:19;;;;;;;;;;;17.90;80.90;;;;;;4959131;28;20178;-77
2023/10/02 10:48:48;;;;;;;;;;;18.00;80.60;;;;;;4959301;28;20394;-77
2023/10/02 10:51:22;;;;;;;;;;;18.00;80.40;;;;;;4961172;28;20007;-77
2023/10/02 10:53:52;;;;;;;;;;;18.10;80.30;;;;;;4963280;28;20111;-76
2023/10/02 10:56:19;;;;;;;;;;;18.20;80.20;;;;;;4963383;28;19981;-77
2023/10/02 10:58:47;;;;;;;;;;;18.30;79.90;;;;;;4964274;28;20826;-77
2023/10/02 11:01:16;;;;;;;;;;;18.30;79.80;;;;;;4960022;28;20560;-77
2023/10/02 11:03:43;;;;;;;;;;;18.40;79.60;;;;;;4963961;28;20410;-77
2023/10/02 11:06:11;;;;;;;;;;;18.50;79.50;;;;;;4967137;28;19999;-77
2023/10/02 11:08:38;;;;;;;;;;;18.60;79.40;;;;;;4965267;28;19991;-77
2023/10/02 11:11:09;;;;;;;;;;;18.60;79.90;;;;;;4970901;28;19989;-77
2023/10/02 11:13:51;;;;;;;;;;;18.70;79.20;;;;;;4959985;28;19985;-77
2023/10/02 11:16:31;;;;;;;;;;;18.80;79.00;;;;;;4960054;28;20003;-77
2023/10/02 11:19:34;;;;;;;;;;;18.90;78.90;;;;;;4971216;28;19996;-77
2023/10/02 11:22:14;;;;;;;;;;;19.00;78.60;;;;;;4958566;28;19988;-77
2023/10/02 11:24:41;;;;;;;;;;;19.00;78.60;;;;;;4964941;28;20364;-77
2023/10/02 11:27:14;;;;;;;;;;;19.10;78.40;;;;;;4970139;28;20008;-77
2023/10/02 11:29:41;;;;;;;;;;;19.10;78.20;;;;;;4960275;28;19977;-77
2023/10/02 11:32:20;;;;;;;;;;;19.20;78.10;;;;;;4957268;28;19997;-77
2023/10/02 11:34:47;;;;;;;;;;;19.30;77.90;;;;;;4961860;28;19989;-77
2023/10/02 11:37:14;;;;;;;;;;;19.30;77.70;;;;;;4958083;28;20499;-77
2023/10/02 11:39:42;;;;;;;;;;;19.40;77.60;;;;;;4957776;28;19977;-77
2023/10/02 11:42:10;;;;;;;;;;;19.50;77.40;;;;;;4956353;28;20011;-77
2023/10/02 11:44:39;;;;;;;;;;;19.60;77.40;;;;;;4960097;28;20434;-77
2023/10/02 11:47:09;;;;;;;;;;;19.60;77.30;;;;;;4954046;28;20375;-77
2023/10/02 11:49:36;;;;;;;;;;;19.70;77.20;;;;;;4961095;28;19981;-77
2023/10/02 11:52:03;;;;;;;;;;;19.80;77.20;;;;;;4959454;28;19985;-77
2023/10/02 11:54:32;;;;;;;;;;;19.90;77.00;;;;;;4961370;28;19984;-77
2023/10/02 11:56:59;;;;;;;;;;;19.90;76.40;;;;;;4962944;28;19985;-77
2023/10/02 11:59:30;;;;;;;;;;;19.90;76.70;;;;;;4959663;28;19984;-77
2023/10/02 12:01:57;;;;;;;;;;;20.00;76.60;;;;;;4962494;28;20005;-77
2023/10/02 12:04:26;;;;;;;;;;;20.00;76.40;;;;;;4965609;28;20035;-77
2023/10/02 12:06:54;;;;;;;;;;;20.10;76.20;;;;;;4961410;28;20084;-77
2023/10/02 12:09:24;;;;;;;;;;;20.20;75.90;;;;;;4961238;28;20024;-78
2023/10/02 12:11:51;;;;;;;;;;;20.30;76.00;;;;;;4971582;28;20088;-77
2023/10/02 12:14:18;;;;;;;;;;;20.30;75.70;;;;;;4962388;28;19981;-77
2023/10/02 12:16:46;;;;;;;;;;;20.40;75.60;;;;;;4959002;28;19993;-77
2023/10/02 12:19:15;;;;;;;;;;;20.50;75.50;;;;;;4961615;28;20054;-77
2023/10/02 12:21:41;;;;;;;;;;;20.50;75.20;;;;;;4965070;28;19984;-77
2023/10/02 12:24:08;;;;;;;;;;;20.60;74.90;;;;;;4965525;28;19985;-77
2023/10/02 12:26:35;;;;;;;;;;;20.60;74.50;;;;;;4964713;28;20066;-77
2023/10/02 12:29:02;;;;;;;;;;;20.70;74.30;;;;;;4961982;28;20087;-77
2023/10/02 12:31:31;;;;;;;;;;;20.70;74.40;;;;;;4959039;28;20403;-77
2023/10/02 12:33:59;;;;;;;;;;;20.80;74.40;;;;;;4960987;28;19985;-76
2023/10/02 12:36:26;;;;;;;;;;;20.80;74.40;;;;;;4957037;28;20035;-77
2023/10/02 12:38:53;;;;;;;;;;;20.90;74.20;;;;;;4966026;28;20759;-77
2023/10/02 12:41:20;;;;;;;;;;;21.00;74.10;;;;;;4965747;28;19988;-77
2023/10/02 12:43:47;;;;;;;;;;;21.00;73.90;;;;;;4959968;28;19981;-77
2023/10/02 12:46:15;;;;;;;;;;;21.10;73.70;;;;;;4961512;28;20001;-76
2023/10/02 12:48:43;;;;;;;;;;;21.10;73.40;;;;;;4960507;28;20076;-77
2023/10/02 12:51:11;;;;;;;;;;;21.20;73.10;;;;;;4958902;28;20558;-78
2023/10/02 12:53:38;;;;;;;;;;;21.30;73.20;;;;;;4965808;28;19988;-77
2023/10/02 12:56:05;;;;;;;;;;;21.30;72.60;;;;;;4960106;28;19977;-77
2023/10/02 12:58:32;;;;;;;;;;;21.40;72.70;;;;;;4961227;28;19997;-77
2023/10/02 13:01:00;;;;;;;;;;;21.50;72.50;;;;;;4966655;28;20547;-77
2023/10/02 13:03:28;;;;;;;;;;;21.50;72.40;;;;;;4958537;28;20004;-77
2023/10/02 13:05:57;;;;;;;;;;;21.60;72.40;;;;;;4959978;28;20378;-78
2023/10/02 13:08:26;;;;;;;;;;;21.60;72.00;;;;;;4959495;28;20001;-77
2023/10/02 13:10:53;;;;;;;;;;;21.70;72.00;;;;;;4961005;28;20051;-77
2023/10/02 13:13:20;;;;;;;;;;;21.70;72.00;;;;;;4959636;28;20561;-77
2023/10/02 13:15:48;;;;;;;;;;;21.80;71.90;;;;;;4961792;28;20019;-77
2023/10/02 13:18:15;;;;;;;;;;;21.80;71.70;;;;;;4956399;28;20001;-78
2023/10/02 13:20:43;;;;;;;;;;;21.90;71.80;;;;;;4958483;28;19988;-77
2023/10/02 13:23:09;;;;;;;;;;;21.90;71.60;;;;;;4957585;28;20028;-77
2023/10/02 13:25:39;;;;;;;;;;;21.90;71.50;;;;;;4960512;28;19994;-76
2023/10/02 13:28:05;;;;;;;;;;;21.90;71.40;;;;;;4958888;28;20004;-76
2023/10/02 13:30:33;;;;;;;;;;;22.00;71.20;;;;;;4958700;28;19997;-77
2023/10/02 13:33:00;;;;;;;;;;;22.10;71.20;;;;;;4955671;28;20046;-77
2023/10/02 13:35:27;;;;;;;;;;;22.10;71.10;;;;;;4959297;28;19985;-78
2023/10/02 13:37:54;;;;;;;;;;;22.10;71.00;;;;;;4957303;28;20033;-77
2023/10/02 13:40:31;;;;;;;;;;;22.10;70.70;;;;;;4958640;28;20157;-77
2023/10/02 13:42:59;;;;;;;;;;;22.20;70.70;;;;;;4957734;28;19981;-77
2023/10/02 13:45:26;;;;;;;;;;;22.20;70.40;;;;;;4960010;28;20094;-77
2023/10/02 13:47:53;;;;;;;;;;;22.30;70.30;;;;;;4962261;28;20005;-78
2023/10/02 13:50:21;;;;;;;;;;;22.30;70.10;;;;;;4958732;28;20760;-77
2023/10/02 13:52:51;;;;;;;;;;;22.30;70.00;;;;;;4960856;28;20364;-77
2023/10/02 13:55:22;;;;;;;;;;;22.40;69.80;;;;;;4959375;28;20055;-77
2023/10/02 13:57:49;;;;;;;;;;;22.50;69.80;;;;;;4962324;28;20031;-77
2023/10/02 14:00:20;;;;;;;;;;;22.50;69.60;;;;;;4962430;28;19984;-77
2023/10/02 14:02:47;;;;;;;;;;;22.50;69.60;;;;;;4962930;28;19992;-76
2023/10/02 14:05:16;;;;;;;;;;;22.60;69.70;;;;;;4961050;28;19981;-77
2023/10/02 14:07:43;;;;;;;;;;;22.60;69.80;;;;;;4970104;28;20461;-78
2023/10/02 14:10:11;;;;;;;;;;;22.60;69.50;;;;;;4963737;28;20499;-78
2023/10/02 14:12:42;;;;;;;;;;;22.70;69.50;;;;;;4963401;28;20031;-77
2023/10/02 14:15:10;;;;;;;;;;;22.80;69.10;;;;;;4959127;28;19981;-77
2023/10/02 14:17:39;;;;;;;;;;;22.80;69.00;;;;;;4958852;28;20063;-77
2023/10/02 14:20:08;;;;;;;;;;;22.90;68.80;;;;;;4963818;28;19981;-76
2023/10/02 14:22:35;;;;;;;;;;;22.90;68.70;;;;;;4967938;28;19981;-77
2023/10/02 14:25:05;;;;;;;;;;;22.90;68.40;;;;;;4959265;28;19982;-77
2023/10/02 14:27:32;;;;;;;;;;;23.00;68.20;;;;;;4966174;28;20653;-77
2023/10/02 14:29:58;;;;;;;;;;;23.00;68.20;;;;;;4957021;28;20450;-77
2023/10/02 14:32:25;;;;;;;;;;;23.00;68.40;;;;;;4960718;28;20415;-77
2023/10/02 14:34:54;;;;;;;;;;;23.10;68.00;;;;;;4962609;28;20712;-77
2023/10/02 14:37:22;;;;;;;;;;;23.10;68.00;;;;;;4959973;28;19997;-77
2023/10/02 14:39:51;;;;;;;;;;;23.10;68.00;;;;;;4956069;28;19992;-77
2023/10/02 14:42:18;;;;;;;;;;;23.10;67.90;;;;;;4961428;28;19985;-76
2023/10/02 14:44:45;;;;;;;;;;;23.10;67.70;;;;;;4959728;28;19982;-77
2023/10/02 14:47:14;;;;;;;;;;;23.10;67.80;;;;;;4962307;28;20516;-77
2023/10/02 14:49:41;;;;;;;;;;;23.10;67.70;;;;;;4958491;28;20025;-78
2023/10/02 14:52:09;;;;;;;;;;;23.10;67.80;;;;;;4959839;28;19992;-77
2023/10/02 14:54:37;;;;;;;;;;;23.10;67.90;;;;;;4960032;28;19980;-78
2023/10/02 14:57:03;;;;;;;;;;;23.10;68.00;;;;;;4964330;28;20017;-77